createdAt,value
2018-03-06T00:01:47.435Z,8.93
2018-03-06T00:04:15.002Z,9.50
2018-03-06T00:06:42.580Z,8.70
2018-03-06T00:09:10.129Z,9.07
2018-03-06T00:11:37.699Z,9.60
2018-03-06T00:14:05.257Z,10.43
2018-03-06T00:16:33.609Z,10.20
2018-03-06T00:19:01.213Z,10.37
2018-03-06T00:21:29.553Z,10.13
2018-03-06T00:23:57.137Z,10.23
2018-03-06T00:26:24.870Z,10.50
2018-03-06T00:28:53.181Z,10.70
2018-03-06T00:31:20.750Z,10.87
2018-03-06T00:33:48.336Z,10.70
2018-03-06T00:36:15.915Z,10.23
2018-03-06T00:38:43.480Z,11.40
2018-03-06T00:41:11.063Z,11.43
2018-03-06T00:43:38.628Z,11.53
2018-03-06T00:46:06.242Z,11.47
2018-03-06T00:48:33.803Z,11.60
2018-03-06T00:51:02.165Z,11.67
2018-03-06T00:53:29.714Z,11.40
2018-03-06T00:55:57.272Z,12.53
2018-03-06T00:58:24.840Z,11.63
2018-03-06T01:00:52.400Z,12.23
2018-03-06T01:03:19.988Z,13.97
2018-03-06T01:05:47.545Z,13.07
2018-03-06T01:08:15.121Z,12.57
2018-03-06T01:10:42.712Z,13.97
2018-03-06T01:13:10.277Z,13.83
2018-03-06T01:15:37.861Z,13.60
2018-03-06T01:18:05.421Z,14.53
2018-03-06T01:20:32.996Z,13.67
2018-03-06T01:23:00.560Z,14.27
2018-03-06T01:25:28.123Z,15.00
2018-03-06T01:27:55.710Z,14.83
2018-03-06T01:30:23.273Z,15.60
2018-03-06T01:32:50.862Z,14.10
2018-03-06T01:35:18.433Z,14.93
2018-03-06T01:37:45.996Z,15.27
2018-03-06T01:40:13.580Z,14.60
2018-03-06T01:42:41.129Z,15.30
2018-03-06T01:45:08.723Z,15.67
2018-03-06T01:47:37.512Z,15.03
2018-03-06T01:50:05.072Z,15.10
2018-03-06T01:52:32.651Z,15.70
2018-03-06T01:55:00.220Z,15.70
2018-03-06T01:57:29.447Z,16.03
2018-03-06T01:59:57.061Z,15.60
2018-03-06T02:02:24.568Z,16.00
2018-03-06T02:04:52.150Z,15.20
2018-03-06T02:07:19.719Z,15.47
2018-03-06T02:09:47.313Z,16.43
2018-03-06T02:12:14.882Z,15.07
2018-03-06T02:14:42.479Z,16.63
2018-03-06T02:17:10.039Z,14.90
2018-03-06T02:19:37.609Z,15.90
2018-03-06T02:22:05.216Z,15.70
2018-03-06T02:24:33.540Z,15.83
2018-03-06T02:27:01.931Z,15.23
2018-03-06T02:29:29.528Z,16.30
2018-03-06T02:31:57.092Z,15.97
2018-03-06T02:34:24.681Z,16.43
2018-03-06T02:36:52.244Z,15.70
2018-03-06T02:39:19.800Z,15.73
2018-03-06T02:41:47.377Z,16.00
2018-03-06T02:44:14.939Z,16.40
2018-03-06T02:46:42.527Z,16.97
2018-03-06T02:49:10.096Z,15.87
2018-03-06T02:51:37.652Z,17.10
2018-03-06T02:54:05.234Z,16.03
2018-03-06T02:56:32.821Z,16.17
2018-03-06T02:59:00.421Z,17.77
2018-03-06T03:01:28.741Z,16.17
2018-03-06T03:03:56.296Z,17.03
2018-03-06T03:06:23.887Z,16.47
2018-03-06T03:08:51.453Z,16.43
2018-03-06T03:11:19.045Z,17.00
2018-03-06T03:13:46.614Z,17.13
2018-03-06T03:16:14.176Z,16.73
2018-03-06T03:18:41.761Z,17.10
2018-03-06T03:21:09.327Z,17.77
2018-03-06T03:23:36.916Z,17.07
2018-03-06T03:26:04.483Z,17.53
2018-03-06T03:28:32.048Z,16.90
2018-03-06T03:30:59.635Z,17.00
2018-03-06T03:33:27.192Z,17.80
2018-03-06T03:35:54.789Z,18.57
2018-03-06T03:38:22.349Z,17.80
2018-03-06T03:40:49.908Z,17.70
2018-03-06T03:43:17.495Z,18.47
2018-03-06T03:45:45.061Z,19.30
2018-03-06T03:48:12.654Z,16.93
2018-03-06T03:50:40.980Z,18.43
2018-03-06T03:53:08.532Z,17.97
2018-03-06T03:55:36.882Z,17.77
2018-03-06T03:58:04.444Z,17.40
2018-03-06T04:00:32.029Z,18.40
2018-03-06T04:02:59.591Z,17.23
2018-03-06T04:05:27.166Z,19.10
2018-03-06T04:07:54.760Z,18.87
2018-03-06T04:10:22.759Z,17.90
2018-03-06T04:12:51.121Z,19.43
2018-03-06T04:15:18.684Z,17.30
2018-03-06T04:17:46.248Z,18.93
2018-03-06T04:20:14.586Z,18.57
2018-03-06T04:22:42.152Z,18.67
2018-03-06T04:25:10.504Z,18.50
2018-03-06T04:27:38.053Z,18.27
2018-03-06T04:30:05.644Z,17.37
2018-03-06T04:32:33.220Z,18.00
2018-03-06T04:35:00.793Z,19.37
2018-03-06T04:37:28.384Z,18.73
2018-03-06T04:39:55.963Z,18.60
2018-03-06T04:42:24.292Z,19.43
2018-03-06T04:44:51.883Z,19.37
2018-03-06T04:47:19.438Z,18.87
2018-03-06T04:49:47.061Z,18.27
2018-03-06T04:52:15.390Z,18.40
2018-03-06T04:54:43.194Z,19.37
2018-03-06T04:57:11.448Z,18.67
2018-03-06T04:59:39.028Z,19.10
2018-03-06T05:02:06.612Z,19.33
2018-03-06T05:04:34.171Z,19.40
2018-03-06T05:07:01.735Z,20.20
2018-03-06T05:09:29.332Z,19.73
2018-03-06T05:11:56.912Z,19.43
2018-03-06T05:14:24.492Z,20.03
2018-03-06T05:16:52.060Z,19.83
2018-03-06T05:19:19.647Z,20.47
2018-03-06T05:21:47.212Z,21.07
2018-03-06T05:24:14.776Z,21.03
2018-03-06T05:26:42.347Z,19.47
2018-03-06T05:29:09.913Z,19.77
2018-03-06T05:31:37.504Z,20.53
2018-03-06T05:34:05.058Z,20.50
2018-03-06T05:36:32.952Z,21.00
2018-03-06T05:39:00.605Z,20.13
2018-03-06T05:41:28.881Z,20.23
2018-03-06T05:43:56.473Z,19.23
2018-03-06T05:46:24.036Z,21.07
2018-03-06T05:48:55.187Z,20.40
2018-03-06T05:51:22.773Z,20.40
2018-03-06T05:53:50.342Z,20.70
2018-03-06T05:56:17.933Z,21.63
2018-03-06T05:58:45.486Z,20.67
2018-03-06T06:01:13.048Z,21.33
2018-03-06T06:03:40.621Z,20.60
2018-03-06T06:06:08.190Z,21.97
2018-03-06T06:08:35.780Z,20.97
2018-03-06T06:11:03.354Z,22.63
2018-03-06T06:13:30.956Z,20.27
2018-03-06T06:15:58.518Z,22.30
2018-03-06T06:18:26.061Z,22.07
2018-03-06T06:20:53.634Z,22.20
2018-03-06T06:23:21.176Z,22.40
2018-03-06T06:25:48.762Z,22.70
2018-03-06T06:28:16.309Z,23.47
2018-03-06T06:30:44.961Z,21.57
2018-03-06T06:33:12.995Z,23.50
2018-03-06T06:35:40.557Z,23.20
2018-03-06T06:38:08.107Z,22.67
2018-03-06T06:40:37.744Z,23.97
2018-03-06T06:43:06.049Z,24.07
2018-03-06T06:45:33.620Z,22.90
2018-03-06T06:48:01.169Z,23.73
2018-03-06T06:50:29.478Z,23.33
2018-03-06T06:52:57.044Z,22.80
2018-03-06T06:55:24.585Z,23.80
2018-03-06T06:57:52.166Z,22.77
2018-03-06T07:00:20.473Z,23.33
2018-03-06T07:02:48.024Z,23.80
2018-03-06T07:05:16.385Z,24.83
2018-03-06T07:07:44.693Z,22.33
2018-03-06T07:10:12.260Z,23.67
2018-03-06T07:12:39.802Z,24.50
2018-03-06T07:15:07.369Z,24.10
2018-03-06T07:17:35.381Z,22.67
2018-03-06T07:20:02.932Z,28.33
2018-03-06T07:22:30.501Z,24.77
2018-03-06T07:24:58.044Z,24.10
2018-03-06T07:27:25.614Z,25.07
2018-03-06T07:29:53.154Z,24.00
2018-03-06T07:32:21.465Z,24.57
2018-03-06T07:34:49.039Z,25.40
2018-03-06T07:37:16.580Z,24.37
2018-03-06T07:39:44.160Z,22.97
2018-03-06T07:42:12.475Z,24.03
2018-03-06T07:44:40.043Z,24.20
2018-03-06T07:47:07.585Z,24.37
2018-03-06T07:49:36.557Z,24.40
2018-03-06T07:52:04.125Z,22.80
2018-03-06T07:54:31.668Z,24.60
2018-03-06T07:56:59.235Z,24.37
2018-03-06T07:59:26.776Z,23.47
2018-03-06T08:01:55.128Z,23.33
2018-03-06T08:04:22.669Z,24.57
2018-03-06T08:06:50.242Z,23.63
2018-03-06T08:09:17.814Z,23.23
2018-03-06T08:11:45.358Z,24.47
2018-03-06T08:14:13.690Z,24.10
2018-03-06T08:16:41.252Z,24.37
2018-03-06T08:19:08.816Z,23.83
2018-03-06T08:21:36.353Z,24.60
2018-03-06T08:24:04.660Z,23.90
2018-03-06T08:26:32.224Z,24.80
2018-03-06T08:29:00.536Z,23.70
2018-03-06T08:31:28.097Z,25.40
2018-03-06T08:33:56.128Z,25.37
2018-03-06T08:36:23.694Z,24.00
2018-03-06T08:38:51.446Z,25.30
2018-03-06T08:41:19.541Z,24.90
2018-03-06T08:43:47.096Z,24.70
2018-03-06T08:46:14.651Z,26.37
2018-03-06T08:48:42.236Z,27.10
2018-03-06T08:51:10.237Z,25.03
2018-03-06T08:53:37.795Z,25.40
2018-03-06T08:56:05.366Z,23.90
2018-03-06T08:58:32.917Z,23.67
2018-03-06T09:01:00.493Z,24.10
2018-03-06T09:03:28.095Z,23.80
2018-03-06T09:05:55.645Z,24.47
2018-03-06T09:08:23.215Z,24.43
2018-03-06T09:10:50.767Z,24.33
2018-03-06T09:13:18.353Z,24.07
2018-03-06T09:15:45.938Z,23.00
2018-03-06T09:18:13.591Z,25.60
2018-03-06T09:20:41.137Z,23.83
2018-03-06T09:23:08.680Z,23.30
2018-03-06T09:25:36.259Z,23.57
2018-03-06T09:28:03.804Z,24.23
2018-03-06T09:30:31.381Z,24.60
2018-03-06T09:32:58.929Z,24.90
2018-03-06T09:35:26.509Z,30.53
2018-03-06T09:37:54.067Z,52.57
2018-03-06T09:40:21.616Z,28.90
2018-03-06T09:42:49.953Z,24.77
2018-03-06T09:45:17.565Z,24.43
2018-03-06T09:47:45.904Z,24.10
2018-03-06T09:50:13.457Z,23.73
2018-03-06T09:52:41.040Z,24.43
2018-03-06T09:55:08.580Z,23.13
2018-03-06T09:57:36.905Z,24.37
2018-03-06T10:00:04.496Z,25.27
2018-03-06T10:02:32.049Z,24.57
2018-03-06T10:04:59.617Z,22.80
2018-03-06T10:07:27.192Z,22.47
2018-03-06T10:09:54.780Z,23.23
2018-03-06T10:12:22.333Z,22.87
2018-03-06T10:14:49.926Z,22.83
2018-03-06T10:17:17.501Z,23.83
2018-03-06T10:19:45.063Z,22.20
2018-03-06T10:22:12.636Z,23.03
2018-03-06T10:24:40.189Z,29.47
2018-03-06T10:27:07.741Z,23.97
2018-03-06T10:29:35.309Z,24.77
2018-03-06T10:32:02.894Z,23.67
2018-03-06T10:34:30.472Z,24.10
2018-03-06T10:36:58.028Z,23.63
2018-03-06T10:39:25.580Z,24.70
2018-03-06T10:41:53.185Z,22.90
2018-03-06T10:44:20.744Z,37.80
2018-03-06T10:46:48.320Z,21.43
2018-03-06T10:49:15.871Z,21.70
2018-03-06T10:51:44.215Z,22.23
2018-03-06T10:54:11.779Z,22.63
2018-03-06T10:56:39.325Z,20.33
2018-03-06T10:59:06.900Z,19.97
2018-03-06T11:01:36.006Z,23.07
2018-03-06T11:04:03.554Z,21.47
2018-03-06T11:06:31.133Z,20.03
2018-03-06T11:08:58.701Z,22.17
2018-03-06T11:11:27.036Z,21.13
2018-03-06T11:13:54.588Z,22.53
2018-03-06T11:16:22.132Z,21.50
2018-03-06T11:18:50.471Z,20.00
2018-03-06T11:21:18.022Z,19.43
2018-03-06T11:23:45.604Z,19.73
2018-03-06T11:26:13.149Z,18.37
2018-03-06T11:28:40.697Z,18.37
2018-03-06T11:31:09.033Z,19.50
2018-03-06T11:33:36.580Z,18.20
2018-03-06T11:36:04.159Z,18.17
2018-03-06T11:38:31.722Z,19.73
2018-03-06T11:40:59.291Z,18.77
2018-03-06T11:43:26.862Z,18.87
2018-03-06T11:45:54.410Z,18.23
2018-03-06T11:48:22.749Z,20.50
2018-03-06T11:50:50.301Z,20.63
2018-03-06T11:53:17.845Z,18.67
2018-03-06T11:55:46.188Z,18.87
2018-03-06T11:58:13.729Z,21.00
2018-03-06T12:00:41.305Z,60.40
2018-03-06T12:03:08.890Z,19.93
2018-03-06T12:05:36.441Z,21.10
2018-03-06T12:08:04.016Z,28.10
2018-03-06T12:10:31.596Z,16.87
2018-03-06T12:12:59.940Z,18.37
2018-03-06T12:15:27.484Z,16.97
2018-03-06T12:17:55.032Z,16.93
2018-03-06T12:20:22.612Z,16.67
2018-03-06T12:22:50.187Z,16.57
2018-03-06T12:25:17.765Z,15.80
2018-03-06T12:27:45.305Z,16.33
2018-03-06T12:30:12.856Z,15.60
2018-03-06T12:32:41.188Z,17.33
2018-03-06T12:35:08.733Z,17.87
2018-03-06T12:37:36.311Z,17.63
2018-03-06T12:40:03.861Z,17.27
2018-03-06T12:42:31.434Z,18.43
2018-03-06T12:44:59.005Z,20.17
2018-03-06T12:47:26.547Z,16.50
2018-03-06T12:49:54.984Z,18.60
2018-03-06T12:52:22.526Z,18.60
2018-03-06T12:54:50.885Z,18.13
2018-03-06T12:57:18.424Z,19.30
2018-03-06T12:59:45.972Z,18.87
2018-03-06T13:02:13.542Z,18.70
2018-03-06T13:04:41.095Z,18.90
2018-03-06T13:07:09.429Z,19.47
2018-03-06T13:09:36.996Z,26.20
2018-03-06T13:12:04.758Z,19.67
2018-03-06T13:14:32.333Z,20.10
2018-03-06T13:16:59.894Z,20.13
2018-03-06T13:19:27.443Z,20.60
2018-03-06T13:21:55.777Z,19.30
2018-03-06T13:24:23.331Z,20.27
2018-03-06T13:26:50.917Z,20.00
2018-03-06T13:29:18.459Z,19.57
2018-03-06T13:31:46.772Z,18.57
2018-03-06T13:34:14.355Z,30.37
2018-03-06T13:36:41.919Z,18.70
2018-03-06T13:39:09.496Z,22.60
2018-03-06T13:41:37.108Z,18.87
2018-03-06T13:44:04.660Z,19.67
2018-03-06T13:46:32.220Z,20.10
2018-03-06T13:48:59.823Z,21.60
2018-03-06T13:51:27.404Z,20.00
2018-03-06T13:53:55.718Z,19.70
2018-03-06T13:56:23.266Z,21.37
2018-03-06T13:58:51.613Z,21.23
2018-03-06T14:01:19.171Z,20.10
2018-03-06T14:03:46.765Z,21.33
2018-03-06T14:06:14.308Z,20.53
2018-03-06T14:08:41.882Z,21.53
2018-03-06T14:11:09.448Z,20.97
2018-03-06T14:13:36.993Z,20.27
2018-03-06T14:16:05.340Z,20.73
2018-03-06T14:18:32.884Z,19.70
2018-03-06T14:21:00.456Z,17.93
2018-03-06T14:23:28.000Z,17.60
2018-03-06T14:25:56.332Z,17.80
2018-03-06T14:28:23.896Z,18.57
2018-03-06T14:30:51.464Z,18.07
2018-03-06T14:33:20.852Z,18.03
2018-03-06T14:35:49.156Z,18.70
2018-03-06T14:38:16.728Z,18.07
2018-03-06T14:40:44.295Z,18.10
2018-03-06T14:43:11.840Z,16.97
2018-03-06T14:45:40.179Z,18.97
2018-03-06T14:48:07.727Z,18.17
2018-03-06T14:50:35.292Z,18.40
2018-03-06T14:53:02.832Z,19.13
2018-03-06T14:55:30.405Z,19.10
2018-03-06T14:57:57.948Z,18.80
2018-03-06T15:00:25.495Z,19.07
2018-03-06T15:02:53.060Z,19.20
2018-03-06T15:05:20.612Z,18.70
2018-03-06T15:07:48.184Z,19.53
2018-03-06T15:10:15.728Z,17.83
2018-03-06T15:12:43.296Z,18.57
2018-03-06T15:15:10.968Z,18.40
2018-03-06T15:17:38.515Z,16.87
2018-03-06T15:20:06.077Z,16.60
2018-03-06T15:22:33.621Z,17.53
2018-03-06T15:25:01.207Z,16.17
2018-03-06T15:27:28.752Z,15.40
2018-03-06T15:29:57.117Z,15.50
2018-03-06T15:32:24.664Z,14.67
2018-03-06T15:34:52.208Z,15.00
2018-03-06T15:37:19.777Z,15.03
2018-03-06T15:39:47.357Z,14.00
2018-03-06T15:42:14.984Z,14.20
2018-03-06T15:44:43.328Z,13.57
2018-03-06T15:47:10.910Z,13.73
2018-03-06T15:49:38.509Z,13.13
2018-03-06T15:52:06.088Z,12.93
2018-03-06T15:54:33.723Z,12.87
2018-03-06T15:57:01.302Z,12.80
2018-03-06T15:59:28.885Z,12.37
2018-03-06T16:01:56.485Z,12.67
2018-03-06T16:04:24.828Z,11.63
2018-03-06T16:06:52.440Z,12.57
2018-03-06T16:09:20.021Z,12.37
2018-03-06T16:11:48.365Z,13.13
2018-03-06T16:14:15.966Z,12.60
2018-03-06T16:16:43.546Z,11.47
2018-03-06T16:19:11.970Z,10.90
2018-03-06T16:21:39.550Z,8.53
2018-03-06T16:24:07.125Z,6.97
2018-03-06T16:26:34.721Z,7.30
2018-03-06T16:29:02.332Z,8.20
2018-03-06T16:31:30.704Z,7.70
2018-03-06T16:33:58.281Z,7.97
2018-03-06T16:36:25.957Z,8.07
2018-03-06T16:38:53.567Z,8.03
2018-03-06T16:41:21.144Z,9.00
2018-03-06T16:43:48.813Z,8.93
2018-03-06T16:46:16.841Z,9.57
2018-03-06T16:48:44.417Z,10.90
2018-03-06T16:51:12.018Z,10.47
2018-03-06T16:53:40.362Z,11.20
2018-03-06T16:56:07.985Z,11.30
2018-03-06T16:58:35.580Z,11.30
2018-03-06T17:01:03.157Z,12.03
2018-03-06T17:03:30.758Z,11.77
2018-03-06T17:05:58.340Z,12.20
2018-03-06T17:08:25.976Z,12.93
2018-03-06T17:10:53.635Z,13.20
2018-03-06T17:13:21.270Z,12.90
2018-03-06T17:15:48.869Z,13.33
2018-03-06T17:18:16.452Z,14.13
2018-03-06T17:20:44.341Z,13.23
2018-03-06T17:23:11.922Z,13.50
2018-03-06T17:25:39.502Z,14.17
2018-03-06T17:28:07.155Z,15.53
2018-03-06T17:30:34.729Z,18.37
2018-03-06T17:33:02.337Z,18.53
2018-03-06T17:35:29.955Z,19.53
2018-03-06T17:37:57.533Z,16.03
2018-03-06T17:40:25.134Z,17.97
2018-03-06T17:42:52.713Z,18.27
2018-03-06T17:45:20.324Z,17.87
2018-03-06T17:47:47.917Z,16.03
2018-03-06T17:50:15.492Z,15.83
2018-03-06T17:52:43.087Z,16.00
2018-03-06T17:55:10.661Z,16.37
2018-03-06T17:57:38.274Z,15.13
2018-03-06T18:00:06.673Z,17.65
2018-03-06T18:02:36.210Z,16.37
2018-03-06T18:05:03.811Z,16.23
2018-03-06T18:07:31.401Z,15.27
2018-03-06T18:09:59.076Z,15.63
2018-03-06T18:12:26.669Z,16.50
2018-03-06T18:14:54.242Z,16.47
2018-03-06T18:17:22.674Z,17.13
2018-03-06T18:19:50.249Z,16.90
2018-03-06T18:22:17.867Z,17.70
2018-03-06T18:24:45.441Z,16.63
2018-03-06T18:27:13.022Z,15.30
2018-03-06T18:29:40.783Z,17.43
2018-03-06T18:32:08.357Z,17.17
2018-03-06T18:34:35.957Z,17.43
2018-03-06T18:37:04.306Z,16.27
2018-03-06T18:39:31.917Z,18.50
2018-03-06T18:42:00.257Z,17.80
2018-03-06T18:44:27.886Z,18.40
2018-03-06T18:46:56.989Z,16.13
2018-03-06T18:49:25.329Z,18.07
2018-03-06T18:51:53.486Z,16.63
2018-03-06T18:54:21.092Z,16.93
2018-03-06T18:56:48.705Z,17.17
2018-03-06T18:59:17.061Z,17.50
2018-03-06T19:05:04.066Z,16.80
2018-03-06T19:07:31.693Z,16.83
2018-03-06T19:09:59.262Z,17.67
2018-03-06T19:12:26.885Z,15.63
2018-03-06T19:14:54.466Z,16.93
2018-03-06T19:17:22.045Z,17.67
2018-03-06T19:19:49.788Z,16.33
2018-03-06T19:22:20.575Z,16.73
2018-03-06T19:24:48.173Z,15.87
2018-03-06T19:27:15.746Z,15.17
2018-03-06T19:29:43.353Z,13.60
2018-03-06T19:32:11.697Z,14.50
2018-03-06T19:34:39.273Z,13.63
2018-03-06T19:37:06.828Z,13.77
2018-03-06T19:39:34.370Z,13.53
2018-03-06T19:42:01.932Z,13.43
2018-03-06T19:44:30.240Z,13.87
2018-03-06T19:46:57.812Z,14.07
2018-03-06T19:49:25.374Z,13.63
2018-03-06T19:51:52.924Z,14.03
2018-03-06T19:54:21.254Z,13.53
2018-03-06T19:56:48.792Z,14.20
2018-03-06T19:59:17.156Z,13.67
2018-03-06T20:01:44.689Z,13.90
2018-03-06T20:04:12.333Z,13.90
2018-03-06T20:06:40.637Z,13.60
2018-03-06T20:09:08.184Z,14.43
2018-03-06T20:11:36.517Z,14.23
2018-03-06T20:14:04.081Z,13.60
2018-03-06T20:16:31.716Z,13.47
2018-03-06T20:19:05.821Z,13.87
2018-03-06T20:21:33.381Z,13.77
2018-03-06T20:24:06.612Z,13.47
2018-03-06T20:26:34.984Z,13.83
2018-03-06T20:29:02.524Z,14.03
2018-03-06T20:31:35.969Z,15.20
2018-03-06T20:34:04.308Z,14.70
2018-03-06T20:36:31.868Z,15.67
2018-03-06T20:39:05.216Z,14.83
2018-03-06T20:41:32.788Z,16.13
2018-03-06T20:44:00.344Z,15.80
2018-03-06T20:46:33.505Z,19.30
2018-03-06T20:49:01.845Z,17.77
2018-03-06T20:51:29.388Z,19.77
2018-03-06T20:56:57.449Z,17.70
2018-03-06T20:59:25.035Z,19.77
2018-03-06T21:01:52.584Z,20.20
2018-03-06T21:04:20.152Z,17.37
2018-03-06T21:06:47.716Z,18.43
2018-03-06T21:09:15.255Z,19.27
2018-03-06T21:11:42.921Z,19.90
2018-03-06T21:14:10.464Z,17.13
2018-03-06T21:16:38.039Z,18.43
2018-03-06T21:19:05.587Z,21.00
2018-03-06T21:21:33.128Z,22.57
2018-03-06T21:24:00.689Z,21.67
2018-03-06T21:26:28.235Z,20.47
2018-03-06T21:28:56.572Z,22.73
2018-03-06T21:31:24.113Z,24.20
2018-03-06T21:33:51.680Z,22.87
2018-03-06T21:36:19.216Z,23.43
2018-03-06T21:38:46.756Z,23.07
2018-03-06T21:41:14.323Z,22.83
2018-03-06T21:43:41.860Z,21.87
2018-03-06T21:46:09.425Z,23.97
2018-03-06T21:48:37.733Z,23.40
2018-03-06T21:51:05.302Z,21.77
2018-03-06T21:53:32.840Z,22.33
2018-03-06T21:56:00.379Z,22.53
2018-03-06T21:58:27.937Z,22.80
2018-03-06T22:00:55.476Z,23.23
2018-03-06T22:03:23.093Z,23.37
2018-03-06T22:05:50.630Z,23.77
2018-03-06T22:08:18.197Z,25.17
2018-03-06T22:10:45.744Z,25.93
2018-03-06T22:13:14.062Z,25.67
2018-03-06T22:15:41.628Z,26.17
2018-03-06T22:18:09.165Z,25.37
2018-03-06T22:20:36.724Z,24.50
2018-03-06T22:23:04.263Z,24.47
2018-03-06T22:25:31.824Z,23.63
2018-03-06T22:27:59.369Z,24.70
2018-03-06T22:30:27.677Z,25.57
2018-03-06T22:32:55.253Z,24.73
2018-03-06T22:35:22.800Z,25.03
2018-03-06T22:37:51.128Z,26.93
2018-03-06T22:40:18.674Z,26.43
2018-03-06T22:42:46.244Z,25.30
2018-03-06T22:45:13.780Z,25.63
2018-03-06T22:47:41.323Z,25.00
2018-03-06T22:50:09.648Z,25.63
2018-03-06T22:52:37.183Z,25.73
2018-03-06T22:55:04.749Z,26.50
2018-03-06T22:57:32.288Z,25.37
2018-03-06T22:59:59.860Z,24.87
2018-03-06T23:02:27.400Z,25.90
2018-03-06T23:04:54.939Z,27.63
2018-03-06T23:07:22.496Z,28.67
2018-03-06T23:09:50.684Z,25.70
2018-03-06T23:12:18.250Z,29.00
2018-03-06T23:14:45.802Z,27.20
2018-03-06T23:17:13.368Z,26.03
2018-03-06T23:19:40.907Z,27.37
2018-03-06T23:22:08.452Z,25.50
2018-03-06T23:24:36.012Z,27.93
2018-03-06T23:27:03.553Z,26.80
2018-03-06T23:29:31.112Z,28.10
2018-03-06T23:31:59.415Z,28.33
2018-03-06T23:34:26.988Z,31.73
2018-03-06T23:36:54.527Z,28.43
2018-03-06T23:39:22.064Z,28.37
2018-03-06T23:41:49.633Z,28.63
2018-03-06T23:44:17.175Z,30.13
2018-03-06T23:46:44.788Z,26.57
2018-03-06T23:49:12.325Z,26.67
2018-03-06T23:51:39.896Z,24.70
2018-03-06T23:54:07.408Z,27.97
2018-03-06T23:56:34.915Z,26.20
2018-03-06T23:59:03.248Z,27.30
